createdAt,value
2023-03-01T00:02:14.557Z,97720.97
2023-03-01T00:05:16.026Z,97716.69
2023-03-01T00:08:17.469Z,97713.34
2023-03-01T00:11:24.967Z,97718.38
2023-03-01T00:14:26.722Z,97718.84
2023-03-01T00:17:28.716Z,97717.13
2023-03-01T00:20:30.191Z,97712.69
2023-03-01T00:23:32.653Z,97707.75
2023-03-01T00:26:34.217Z,97715.25
2023-03-01T00:29:35.737Z,97714.66
2023-03-01T00:32:37.236Z,97710.50
2023-03-01T00:35:38.905Z,97709.31
2023-03-01T00:38:43.887Z,97708.47
2023-03-01T00:41:45.560Z,97700.56
2023-03-01T00:44:47.040Z,97694.63
2023-03-01T00:47:50.041Z,97697.88
2023-03-01T00:50:51.516Z,97685.41
2023-03-01T00:53:56.075Z,97686.16
2023-03-01T00:56:57.514Z,97693.09
2023-03-01T00:59:59.082Z,97688.25
2023-03-01T01:03:00.886Z,97683.84
2023-03-01T01:06:09.993Z,97682.34
2023-03-01T01:09:17.967Z,97677.16
2023-03-01T01:12:19.509Z,97674.88
2023-03-01T01:15:20.993Z,97673.09
2023-03-01T01:18:22.468Z,97675.53
2023-03-01T01:21:25.560Z,97678.78
2023-03-01T01:24:27.029Z,97675.63
2023-03-01T01:27:28.569Z,97668.94
2023-03-01T01:30:30.077Z,97671.06
2023-03-01T01:33:32.405Z,97655.50
2023-03-01T01:36:35.391Z,97648.38
2023-03-01T01:39:36.942Z,97649.84
2023-03-01T01:42:38.556Z,97653.47
2023-03-01T01:45:40.522Z,97642.69
2023-03-01T01:48:49.583Z,97649.19
2023-03-01T01:51:56.867Z,97654.47
2023-03-01T01:55:06.945Z,97638.16
2023-03-01T01:58:11.914Z,97639.28
2023-03-01T02:01:13.584Z,97633.34
2023-03-01T02:04:15.036Z,97626.47
2023-03-01T02:07:22.587Z,97627.25
2023-03-01T02:10:25.504Z,97622.25
2023-03-01T02:13:27.716Z,97624.50
2023-03-01T02:16:30.815Z,97615.19
2023-03-01T02:19:45.856Z,97622.25
2023-03-01T02:22:48.091Z,97622.25
2023-03-01T02:25:59.205Z,97627.06
2023-03-01T02:29:00.801Z,97625.13
2023-03-01T02:32:05.169Z,97619.13
2023-03-01T02:35:07.407Z,97616.63
2023-03-01T02:38:10.121Z,97610.78
2023-03-01T02:41:15.852Z,97608.38
2023-03-01T02:44:17.827Z,97614.56
2023-03-01T02:47:19.249Z,97602.91
2023-03-01T02:50:23.684Z,97601.22
2023-03-01T02:53:40.334Z,97597.91
2023-03-01T02:56:44.045Z,97587.34
2023-03-01T02:59:45.641Z,97605.88
2023-03-01T03:02:50.016Z,97596.88
2023-03-01T03:05:57.202Z,97591.84
2023-03-01T03:08:59.243Z,97588.69
2023-03-01T03:12:00.820Z,97587.75
2023-03-01T03:15:02.694Z,97590.50
2023-03-01T03:18:06.935Z,97587.34
2023-03-01T03:21:13.416Z,97583.59
2023-03-01T03:24:14.918Z,97590.72
2023-03-01T03:27:16.382Z,97583.56
2023-03-01T03:30:20.049Z,97573.63
2023-03-01T03:33:21.523Z,97577.88
2023-03-01T03:36:24.920Z,97569.78
2023-03-01T03:39:28.160Z,97569.09
2023-03-01T03:42:29.751Z,97568.78
2023-03-01T03:45:34.304Z,97562.25
2023-03-01T03:48:38.638Z,97573.00
2023-03-01T03:51:40.152Z,97569.66
2023-03-01T03:54:41.826Z,97568.31
2023-03-01T03:57:43.686Z,97564.06
2023-03-01T04:00:45.736Z,97566.06
2023-03-01T04:03:55.215Z,97563.66
2023-03-01T04:06:56.719Z,97554.19
2023-03-01T04:09:58.198Z,97554.47
2023-03-01T04:12:59.752Z,97548.88
2023-03-01T04:16:01.268Z,97552.19
2023-03-01T04:19:02.864Z,97549.25
2023-03-01T04:22:10.185Z,97544.66
2023-03-01T04:25:14.977Z,97545.09
2023-03-01T04:28:17.095Z,97536.53
2023-03-01T04:31:22.164Z,97530.38
2023-03-01T04:34:23.969Z,97537.63
2023-03-01T04:37:26.202Z,97531.38
2023-03-01T04:40:28.283Z,97523.56
2023-03-01T04:43:29.927Z,97538.84
2023-03-01T04:46:31.665Z,97538.53
2023-03-01T04:49:33.304Z,97538.31
2023-03-01T04:52:35.125Z,97530.63
2023-03-01T04:55:36.842Z,97531.94
2023-03-01T04:58:38.465Z,97533.38
2023-03-01T05:01:39.951Z,97522.97
2023-03-01T05:04:41.593Z,97535.53
2023-03-01T05:07:43.108Z,97531.19
2023-03-01T05:10:47.340Z,97513.06
2023-03-01T05:13:50.837Z,97508.47
2023-03-01T05:16:52.271Z,97510.34
2023-03-01T05:19:55.917Z,97516.28
2023-03-01T05:23:00.366Z,97509.28
2023-03-01T05:26:05.367Z,97508.47
2023-03-01T05:29:09.447Z,97509.28
2023-03-01T05:32:15.591Z,97512.59
2023-03-01T05:35:18.889Z,97498.97
2023-03-01T05:38:21.600Z,97504.78
2023-03-01T05:41:23.031Z,97505.59
2023-03-01T05:44:25.228Z,97500.28
2023-03-01T05:47:26.679Z,97502.78
2023-03-01T05:50:30.840Z,97498.41
2023-03-01T05:53:32.192Z,97495.78
2023-03-01T05:56:35.241Z,97491.75
2023-03-01T05:59:36.701Z,97495.09
2023-03-01T06:02:38.850Z,97494.25
2023-03-01T06:05:41.243Z,97497.38
2023-03-01T06:08:42.807Z,97499.97
2023-03-01T06:11:44.922Z,97492.03
2023-03-01T06:14:48.291Z,97492.88
2023-03-01T06:17:50.272Z,97483.28
2023-03-01T06:20:55.921Z,97497.97
2023-03-01T06:23:57.413Z,97502.22
2023-03-01T06:26:58.866Z,97499.75
2023-03-01T06:30:00.309Z,97496.56
2023-03-01T06:33:03.128Z,97504.16
2023-03-01T06:36:04.984Z,97500.16
2023-03-01T06:39:06.675Z,97496.84
2023-03-01T06:42:11.012Z,97505.88
2023-03-01T06:45:12.800Z,97503.28
2023-03-01T06:48:14.232Z,97508.38
2023-03-01T06:51:15.796Z,97503.44
2023-03-01T06:54:18.747Z,97504.97
2023-03-01T06:57:20.204Z,97506.75
2023-03-01T07:00:22.098Z,97504.97
2023-03-01T07:03:23.888Z,97502.59
2023-03-01T07:06:25.406Z,97498.81
2023-03-01T07:09:26.981Z,97498.25
2023-03-01T07:12:28.436Z,97497.28
2023-03-01T07:15:29.951Z,97500.84
2023-03-01T07:18:31.444Z,97495.97
2023-03-01T07:21:33.072Z,97495.75
2023-03-01T07:24:34.909Z,97493.38
2023-03-01T07:27:36.952Z,97494.44
2023-03-01T07:30:38.468Z,97498.13
2023-03-01T07:33:39.984Z,97492.44
2023-03-01T07:36:44.039Z,97482.00
2023-03-01T07:39:45.598Z,97482.00
2023-03-01T07:42:47.069Z,97478.94
2023-03-01T07:45:55.789Z,97482.97
2023-03-01T07:48:58.942Z,97484.38
2023-03-01T07:52:00.553Z,97484.63
2023-03-01T07:55:02.020Z,97475.38
2023-03-01T07:58:04.016Z,97474.50
2023-03-01T08:01:08.138Z,97468.00
2023-03-01T08:04:09.683Z,97477.34
2023-03-01T08:07:11.168Z,97475.56
2023-03-01T08:10:12.658Z,97473.44
2023-03-01T08:13:14.129Z,97473.06
2023-03-01T08:16:16.800Z,97479.44
2023-03-01T08:19:19.069Z,97471.63
2023-03-01T08:22:20.642Z,97478.66
2023-03-01T08:25:22.131Z,97481.75
2023-03-01T08:28:23.553Z,97475.09
2023-03-01T08:31:29.749Z,97469.03
2023-03-01T08:34:32.441Z,97473.28
2023-03-01T08:37:34.158Z,97469.94
2023-03-01T08:40:35.624Z,97466.81
2023-03-01T08:43:37.100Z,97474.38
2023-03-01T08:46:41.457Z,97463.28
2023-03-01T08:49:42.998Z,97471.09
2023-03-01T08:52:44.537Z,97466.56
2023-03-01T08:55:46.262Z,97464.72
2023-03-01T08:58:49.627Z,97455.81
2023-03-01T09:01:51.190Z,97462.91
2023-03-01T09:04:52.674Z,97461.75
2023-03-01T09:07:54.183Z,97458.53
2023-03-01T09:10:55.875Z,97441.31
2023-03-01T09:13:57.398Z,97444.72
2023-03-01T09:16:58.967Z,97433.84
2023-03-01T09:20:00.628Z,97431.81
2023-03-01T09:23:02.370Z,97426.44
2023-03-01T09:26:04.359Z,97425.56
2023-03-01T09:29:05.907Z,97421.84
2023-03-01T09:32:09.121Z,97425.03
2023-03-01T09:35:10.680Z,97415.44
2023-03-01T09:38:12.592Z,97423.44
2023-03-01T09:41:26.299Z,97432.16
2023-03-01T09:44:46.415Z,97431.09
2023-03-01T09:47:49.501Z,97429.31
2023-03-01T09:50:52.516Z,97443.50
2023-03-01T09:53:55.611Z,97439.78
2023-03-01T09:57:12.527Z,97438.66
2023-03-01T10:00:29.357Z,97439.09
2023-03-01T10:03:50.195Z,97438.19
2023-03-01T10:07:15.203Z,97434.84
2023-03-01T10:10:27.965Z,97432.78
2023-03-01T10:13:37.200Z,97423.69
2023-03-01T10:16:49.211Z,97415.72
2023-03-01T10:19:50.752Z,97417.06
2023-03-01T10:22:56.390Z,97421.47
2023-03-01T10:25:57.941Z,97417.63
2023-03-01T10:29:11.372Z,97413.63
2023-03-01T10:32:13.280Z,97412.94
2023-03-01T10:35:23.043Z,97418.97
2023-03-01T10:38:24.776Z,97420.06
2023-03-01T10:41:29.453Z,97415.88
2023-03-01T10:44:40.224Z,97409.03
2023-03-01T10:47:41.711Z,97415.59
2023-03-01T10:50:49.245Z,97414.09
2023-03-01T10:53:52.698Z,97406.09
2023-03-01T10:56:57.189Z,97396.38
2023-03-01T11:00:25.875Z,97401.53
2023-03-01T11:03:38.868Z,97386.28
2023-03-01T11:06:42.326Z,97392.00
2023-03-01T11:09:43.806Z,97380.63
2023-03-01T11:12:45.245Z,97374.84
2023-03-01T11:16:08.639Z,97376.66
2023-03-01T11:19:10.165Z,97369.59
2023-03-01T11:22:21.077Z,97371.69
2023-03-01T11:25:28.753Z,97364.13
2023-03-01T11:28:31.245Z,97359.22
2023-03-01T11:31:34.580Z,97358.72
2023-03-01T11:34:52.590Z,97364.25
2023-03-01T11:38:03.017Z,97348.50
2023-03-01T11:41:20.548Z,97354.28
2023-03-01T11:44:29.107Z,97340.91
2023-03-01T11:47:40.206Z,97348.03
2023-03-01T11:50:49.365Z,97338.94
2023-03-01T11:54:15.340Z,97327.59
2023-03-01T11:57:44.285Z,97342.25
2023-03-01T12:00:45.931Z,97327.66
2023-03-01T12:04:23.043Z,97322.53
2023-03-01T12:07:42.512Z,97330.81
2023-03-01T12:11:15.007Z,97325.91
2023-03-01T12:14:50.249Z,97316.69
2023-03-01T12:18:25.444Z,97315.91
2023-03-01T12:21:54.415Z,97315.50
2023-03-01T12:25:14.388Z,97307.59
2023-03-01T12:28:18.782Z,97311.50
2023-03-01T12:31:44.918Z,97304.78
2023-03-01T12:34:56.652Z,97301.47
2023-03-01T12:38:19.362Z,97306.88
2023-03-01T12:41:39.641Z,97299.75
2023-03-01T12:44:52.626Z,97287.06
2023-03-01T12:47:59.919Z,97281.38
2023-03-01T12:51:06.450Z,97286.00
2023-03-01T12:54:16.854Z,97286.59
2023-03-01T12:57:47.021Z,97287.78
2023-03-01T13:01:20.655Z,97272.50
2023-03-01T13:04:59.340Z,97274.66
2023-03-01T13:08:03.716Z,97264.38
2023-03-01T13:11:12.930Z,97262.53
2023-03-01T13:14:26.391Z,97258.34
2023-03-01T13:17:34.427Z,97249.97
2023-03-01T13:20:48.128Z,97252.22
2023-03-01T13:23:49.663Z,97243.34
2023-03-01T13:27:25.791Z,97238.72
2023-03-01T13:30:36.603Z,97237.16
2023-03-01T13:33:46.874Z,97235.44
2023-03-01T13:36:50.595Z,97229.22
2023-03-01T13:39:52.913Z,97241.06
2023-03-01T13:43:05.281Z,97242.44
2023-03-01T13:46:21.515Z,97247.44
2023-03-01T13:49:31.512Z,97244.97
2023-03-01T13:52:45.629Z,97239.75
2023-03-01T13:55:57.003Z,97224.78
2023-03-01T13:58:59.056Z,97240.59
2023-03-01T14:02:01.900Z,97238.16
2023-03-01T14:05:03.980Z,97230.09
2023-03-01T14:08:18.461Z,97235.53
2023-03-01T14:11:19.798Z,97236.84
2023-03-01T14:14:43.041Z,97235.16
2023-03-01T14:17:54.206Z,97221.69
2023-03-01T14:20:55.719Z,97212.81
2023-03-01T14:23:58.585Z,97214.19
2023-03-01T14:27:02.508Z,97218.66
2023-03-01T14:30:13.953Z,97209.34
2023-03-01T14:33:25.546Z,97213.63
2023-03-01T14:36:30.315Z,97208.34
2023-03-01T14:39:33.233Z,97217.00
2023-03-01T14:42:37.134Z,97214.59
2023-03-01T14:45:38.673Z,97207.34
2023-03-01T14:48:40.353Z,97197.66
2023-03-01T14:51:47.415Z,97205.19
2023-03-01T14:54:52.643Z,97204.25
2023-03-01T14:57:54.649Z,97204.31
2023-03-01T15:01:00.430Z,97201.56
2023-03-01T15:04:03.258Z,97193.00
2023-03-01T15:07:06.070Z,97197.03
2023-03-01T15:10:18.146Z,97193.63
2023-03-01T15:13:25.877Z,97205.56
2023-03-01T15:16:31.536Z,97197.44
2023-03-01T15:19:33.255Z,97199.28
2023-03-01T15:22:36.192Z,97215.44
2023-03-01T15:25:39.582Z,97208.84
2023-03-01T15:28:44.373Z,97207.38
2023-03-01T15:31:57.019Z,97206.84
2023-03-01T15:34:59.943Z,97206.25
2023-03-01T15:38:02.495Z,97202.22
2023-03-01T15:41:22.591Z,97197.88
2023-03-01T15:44:42.655Z,97199.72
2023-03-01T15:47:51.048Z,97205.53
2023-03-01T15:51:00.608Z,97193.03
2023-03-01T15:54:11.845Z,97202.03
2023-03-01T15:57:15.878Z,97196.97
2023-03-01T16:00:18.518Z,97187.41
2023-03-01T16:03:22.341Z,97191.22
2023-03-01T16:06:23.795Z,97200.94
2023-03-01T16:09:26.757Z,97193.22
2023-03-01T16:12:31.092Z,97201.28
2023-03-01T16:15:37.380Z,97187.03
2023-03-01T16:18:39.695Z,97194.31
2023-03-01T16:21:43.171Z,97187.09
2023-03-01T16:24:54.800Z,97195.28
2023-03-01T16:28:09.888Z,97208.03
2023-03-01T16:31:12.853Z,97195.81
2023-03-01T16:34:14.933Z,97206.84
2023-03-01T16:37:17.235Z,97206.59
2023-03-01T16:40:25.214Z,97208.22
2023-03-01T16:43:26.849Z,97208.63
2023-03-01T16:46:29.899Z,97210.13
2023-03-01T16:49:31.367Z,97201.78
2023-03-01T16:52:34.779Z,97215.94
2023-03-01T16:55:37.292Z,97214.06
2023-03-01T16:58:40.206Z,97218.63
2023-03-01T17:01:42.374Z,97218.09
2023-03-01T17:04:43.852Z,97228.31
2023-03-01T17:07:45.393Z,97229.03
2023-03-01T17:10:46.884Z,97229.94
2023-03-01T17:13:48.981Z,97229.66
2023-03-01T17:16:50.478Z,97243.97
2023-03-01T17:19:52.019Z,97235.03
2023-03-01T17:22:53.514Z,97239.19
2023-03-01T17:25:55.843Z,97239.72
2023-03-01T17:28:59.110Z,97237.97
2023-03-01T17:32:01.030Z,97241.31
2023-03-01T17:35:02.694Z,97242.31
2023-03-01T17:38:05.567Z,97237.53
2023-03-01T17:41:07.373Z,97242.31
2023-03-01T17:44:09.430Z,97239.69
2023-03-01T17:47:11.099Z,97252.13
2023-03-01T17:50:12.652Z,97257.63
2023-03-01T17:53:14.385Z,97258.25
2023-03-01T17:56:17.598Z,97263.88
2023-03-01T17:59:19.194Z,97274.38
2023-03-01T18:02:20.894Z,97273.44
2023-03-01T18:05:22.380Z,97276.31
2023-03-01T18:08:23.956Z,97281.13
2023-03-01T18:11:25.804Z,97269.28
2023-03-01T18:14:29.795Z,97274.53
2023-03-01T18:17:31.371Z,97274.91
2023-03-01T18:20:34.298Z,97274.09
2023-03-01T18:23:36.803Z,97272.59
2023-03-01T18:26:39.919Z,97279.34
2023-03-01T18:29:41.771Z,97271.91
2023-03-01T18:32:44.929Z,97266.50
2023-03-01T18:35:46.657Z,97281.94
2023-03-01T18:38:48.831Z,97284.69
2023-03-01T18:41:50.694Z,97275.03
2023-03-01T18:44:53.797Z,97277.91
2023-03-01T18:47:55.565Z,97279.56
2023-03-01T18:50:58.082Z,97272.25
2023-03-01T18:53:59.685Z,97270.47
2023-03-01T18:57:01.310Z,97267.44
2023-03-01T19:00:04.488Z,97274.75
2023-03-01T19:03:05.986Z,97271.81
2023-03-01T19:06:07.505Z,97276.09
2023-03-01T19:09:09.362Z,97274.97
2023-03-01T19:12:10.860Z,97262.53
2023-03-01T19:15:13.700Z,97266.94
2023-03-01T19:18:15.204Z,97267.19
2023-03-01T19:21:22.125Z,97262.78
2023-03-01T19:24:23.557Z,97260.31
2023-03-01T19:27:25.140Z,97260.56
2023-03-01T19:30:27.288Z,97259.31
2023-03-01T19:33:30.245Z,97258.19
2023-03-01T19:36:35.092Z,97254.44
2023-03-01T19:39:36.619Z,97252.78
2023-03-01T19:42:38.058Z,97254.97
2023-03-01T19:45:39.608Z,97250.16
2023-03-01T19:48:41.529Z,97250.72
2023-03-01T19:51:43.219Z,97250.59
2023-03-01T19:54:45.810Z,97246.25
2023-03-01T19:57:47.275Z,97247.63
2023-03-01T20:00:49.049Z,97243.34
2023-03-01T20:03:50.539Z,97236.63
2023-03-01T20:06:52.142Z,97239.97
2023-03-01T20:09:53.751Z,97232.81
2023-03-01T20:12:55.289Z,97236.38
2023-03-01T20:15:56.860Z,97241.84
2023-03-01T20:19:00.580Z,97236.50
2023-03-01T20:22:03.375Z,97239.13
2023-03-01T20:25:05.778Z,97233.44
2023-03-01T20:28:07.313Z,97234.88
2023-03-01T20:31:11.071Z,97231.16
2023-03-01T20:34:12.662Z,97235.00
2023-03-01T20:37:14.346Z,97227.03
2023-03-01T20:40:16.120Z,97226.59
2023-03-01T20:43:17.605Z,97224.28
2023-03-01T20:46:19.360Z,97218.06
2023-03-01T20:49:21.626Z,97217.81
2023-03-01T20:52:23.280Z,97207.78
2023-03-01T20:55:27.174Z,97211.09
2023-03-01T20:58:32.825Z,97193.03
2023-03-01T21:01:38.562Z,97198.16
2023-03-01T21:04:40.204Z,97193.03
2023-03-01T21:07:42.774Z,97194.16
2023-03-01T21:10:50.043Z,97185.06
2023-03-01T21:13:55.181Z,97184.09
2023-03-01T21:16:56.693Z,97182.38
2023-03-01T21:19:58.144Z,97182.66
2023-03-01T21:22:59.638Z,97177.31
2023-03-01T21:26:06.998Z,97170.06
2023-03-01T21:29:19.493Z,97173.06
2023-03-01T21:32:21.160Z,97170.06
2023-03-01T21:35:23.568Z,97174.19
2023-03-01T21:38:25.049Z,97170.34
2023-03-01T21:41:29.497Z,97181.47
2023-03-01T21:44:32.768Z,97165.66
2023-03-01T21:47:35.945Z,97158.09
2023-03-01T21:50:37.363Z,97157.38
2023-03-01T21:53:38.809Z,97153.09
2023-03-01T21:56:40.947Z,97151.47
2023-03-01T21:59:42.402Z,97148.66
2023-03-01T22:02:44.031Z,97150.44
2023-03-01T22:05:58.217Z,97151.97
2023-03-01T22:09:04.516Z,97141.53
2023-03-01T22:12:06.494Z,97143.63
2023-03-01T22:15:08.630Z,97141.66
2023-03-01T22:18:12.075Z,97140.84
2023-03-01T22:21:13.832Z,97143.06
2023-03-01T22:24:16.376Z,97140.47
2023-03-01T22:27:17.835Z,97141.69
2023-03-01T22:30:19.320Z,97127.50
2023-03-01T22:33:21.140Z,97131.75
2023-03-01T22:36:23.106Z,97128.19
2023-03-01T22:39:24.670Z,97117.44
2023-03-01T22:42:26.158Z,97115.00
2023-03-01T22:45:32.323Z,97121.00
2023-03-01T22:48:33.907Z,97113.00
2023-03-01T22:51:37.672Z,97115.47
2023-03-01T22:54:39.151Z,97118.16
2023-03-01T22:57:40.610Z,97119.38
2023-03-01T23:00:42.097Z,97116.25
2023-03-01T23:03:44.231Z,97114.84
2023-03-01T23:06:55.634Z,97114.59
2023-03-01T23:10:02.105Z,97114.72
2023-03-01T23:13:03.597Z,97121.06
2023-03-01T23:16:05.554Z,97111.56
2023-03-01T23:19:07.065Z,97106.19
2023-03-01T23:22:08.630Z,97090.50
2023-03-01T23:25:13.092Z,97093.13
2023-03-01T23:28:14.570Z,97089.38
2023-03-01T23:31:16.630Z,97088.81
2023-03-01T23:34:19.210Z,97078.63
2023-03-01T23:37:20.730Z,97086.22
2023-03-01T23:40:22.227Z,97076.03
2023-03-01T23:43:23.719Z,97069.97
2023-03-01T23:46:27.847Z,97072.41
2023-03-01T23:49:29.321Z,97066.59
2023-03-01T23:52:38.457Z,97063.94
2023-03-01T23:55:44.984Z,97060.25
2023-03-01T23:58:46.451Z,97070.34
